Darstellungsparameter: Aktuell verwendete Einstellungen:
Skalierung der Graphiken ... ?
xyx+y,   Skalierungsfaktor:      Skalierung: Modus: x, Faktor: 1
Darstellungszeitraum ... ?
Vom - - bis: - -   Zeitraum: 24.09.2010 - 24.09.2010
Min/Max/Avg-Anzeige ... ?
Zeige MMA aktuell
Zeige MMA Monat
Zeige MMA alles
Zeige --A aktuell
Zeige --A Monat
Zeige --A alles
Keine MMA-Anzeige
MMA:
Minimum Maximum Average (ber die Originaldaten)
MMA-Basis: 24.09.2010 - 24.09.2010
Quicknavigation für Darstellung... ?
Tage:      1T, 2T, 3T, 5T -1T -2T -3T -5T +1T +2T +3T +5T
Wochen: 1W, 2W, 3W -1W -2W -3W +1W +2W +3W
Monate: 1M, 3M, 6M -1M -3M -6M +1M +3M +6M
Jahre:    1J, 3J, 5J, 10J -1J -3J -5J -10J +1J +3J +5J +10J
Nutze für die Darstellung ... ?
Originaldaten oder Mittelwerte auf ...
Stundenbasis Tagesbasis Wochenbasis
Monatsbasis Jahresbasis      Datenbasis: Original-Daten
Darstellen als:
Statistik (Auto) Statistik J:M      Darstellung:
Zur Graphik,    zurück zur Übersicht aller Sensoren.
 
Tabellarische Datenbersicht: ?
 
Sensor: Nr:Datum:Temp:Abs-Feuchte:Windchill:Wind:
Aussen-T/F 1 24-09-2010 00:09:02 16 C 12.13 g/m*3 16 C 0 km/h
2 24-09-2010 00:21:02 15.9 C 12.32 g/m*3 15.9 C 0 km/h
3 24-09-2010 00:33:02 15.6 C 12.1 g/m*3 15.6 C 0 km/h
4 24-09-2010 00:45:02 15.5 C 12.16 g/m*3 15.5 C 0 km/h
5 24-09-2010 00:57:02 15.5 C 12.16 g/m*3 15.5 C 0 km/h
6 24-09-2010 01:09:02 15.5 C 12.16 g/m*3 15.5 C 0 km/h
7 24-09-2010 01:21:02 15.5 C 12.29 g/m*3 15.5 C 0 km/h
8 24-09-2010 01:33:02 15.6 C 12.37 g/m*3 15.6 C 0 km/h
9 24-09-2010 01:45:02 15.6 C 12.37 g/m*3 15.6 C 0 km/h
10 24-09-2010 01:57:03 15.5 C 12.29 g/m*3 15.5 C 0 km/h
11 24-09-2010 02:09:03 15.5 C 12.29 g/m*3 15.5 C 0 km/h
12 24-09-2010 02:21:03 15.5 C 12.29 g/m*3 15.5 C 0 km/h
13 24-09-2010 02:33:03 15.4 C 12.22 g/m*3 15.4 C 0 km/h
14 24-09-2010 02:45:03 15.3 C 12.01 g/m*3 15.3 C 0 km/h
15 24-09-2010 02:57:03 15.2 C 11.94 g/m*3 15.2 C 0 km/h
16 24-09-2010 03:09:03 15.1 C 11.87 g/m*3 15.1 C 0 km/h
17 24-09-2010 03:21:03 14.9 C 11.85 g/m*3 14.9 C 0 km/h
18 24-09-2010 03:33:03 14.9 C 11.85 g/m*3 14.9 C 0 km/h
19 24-09-2010 03:45:03 14.9 C 11.98 g/m*3 14.9 C 0 km/h
20 24-09-2010 03:57:03 14.9 C 11.98 g/m*3 14.9 C 0 km/h
21 24-09-2010 04:09:03 14.8 C 11.91 g/m*3 14.8 C 0 km/h
22 24-09-2010 04:21:03 14.8 C 11.91 g/m*3 14.8 C 0 km/h
23 24-09-2010 04:33:03 14.8 C 11.91 g/m*3 14.8 C 0 km/h
24 24-09-2010 04:45:03 14.8 C 11.91 g/m*3 14.8 C 0 km/h
25 24-09-2010 04:57:03 14.7 C 11.83 g/m*3 14.7 C 0 km/h
Sensor: Nr:Datum:Temp:Abs-Feuchte:Windchill:Wind:
Aussen-T/F 26 24-09-2010 05:09:03 14.5 C 11.69 g/m*3 14.5 C 0 km/h
27 24-09-2010 05:21:03 14.5 C 11.69 g/m*3 14.5 C 0 km/h
28 24-09-2010 05:33:03 14.5 C 11.69 g/m*3 14.5 C 0 km/h
29 24-09-2010 05:45:03 14.6 C 11.76 g/m*3 14.6 C 0 km/h
30 24-09-2010 05:57:03 14.6 C 11.76 g/m*3 14.6 C 0 km/h
31 24-09-2010 06:09:03 14.7 C 11.83 g/m*3 14.7 C 0 km/h
32 24-09-2010 06:21:04 14.7 C 11.83 g/m*3 14.7 C 0 km/h
33 24-09-2010 06:33:04 14.7 C 11.83 g/m*3 14.7 C 0 km/h
34 24-09-2010 06:45:04 14.7 C 11.83 g/m*3 14.7 C 0 km/h
35 24-09-2010 06:57:04 14.7 C 11.83 g/m*3 14.7 C 0 km/h
36 24-09-2010 07:09:04 14.5 C 11.69 g/m*3 14.5 C 0 km/h
37 24-09-2010 07:21:04 14.4 C 11.62 g/m*3 14.4 C 0 km/h
38 24-09-2010 07:33:02 14.3 C 11.55 g/m*3 14.3 C 0 km/h
39 24-09-2010 07:45:02 14.4 C 11.62 g/m*3 14.4 C 0 km/h
40 24-09-2010 07:57:02 14.4 C 11.62 g/m*3 14.4 C 0 km/h
41 24-09-2010 08:09:02 14.4 C 11.62 g/m*3 14.4 C 0 km/h
42 24-09-2010 08:21:01 14.3 C 11.55 g/m*3 14.3 C 0 km/h
43 24-09-2010 08:33:02 14.6 C 11.89 g/m*3 14.6 C 0 km/h
44 24-09-2010 08:45:02 14.8 C 12.03 g/m*3 14.8 C 0 km/h
45 24-09-2010 08:57:02 14.8 C 12.03 g/m*3 14.8 C 0 km/h
46 24-09-2010 09:09:01 14.8 C 12.03 g/m*3 14.8 C 0 km/h
47 24-09-2010 09:21:02 14.8 C 12.03 g/m*3 14.8 C 0 km/h
48 24-09-2010 09:33:01 14.9 C 12.11 g/m*3 14.9 C 0 km/h
49 24-09-2010 09:45:02 14.9 C 12.11 g/m*3 14.9 C 0 km/h
50 24-09-2010 09:57:02 15 C 12.05 g/m*3 15 C 0 km/h
Sensor: Nr:Datum:Temp:Abs-Feuchte:Windchill:Wind:
Aussen-T/F 51 24-09-2010 10:09:02 15 C 12.05 g/m*3 15 C 0 km/h
52 24-09-2010 10:21:02 14.9 C 12.11 g/m*3 14.9 C 0 km/h
53 24-09-2010 10:33:02 15 C 12.05 g/m*3 15 C 0 km/h
54 24-09-2010 10:45:01 15 C 12.05 g/m*3 15 C 0 km/h
55 24-09-2010 10:57:01 15 C 12.05 g/m*3 15 C 0 km/h
56 24-09-2010 11:09:02 15.1 C 12.13 g/m*3 15.1 C 0 km/h
57 24-09-2010 11:21:01 15.1 C 12.13 g/m*3 15.1 C 0 km/h
58 24-09-2010 11:33:01 15.4 C 12.35 g/m*3 15.4 C 0 km/h
59 24-09-2010 11:45:02 15.4 C 12.35 g/m*3 15.4 C 0 km/h
60 24-09-2010 11:57:02 15.1 C 12.13 g/m*3 15.1 C 0 km/h
61 24-09-2010 12:09:02 15.1 C 12.13 g/m*3 15.1 C 0 km/h
62 24-09-2010 12:21:02 15.1 C 12.13 g/m*3 15.1 C 0 km/h
63 24-09-2010 12:33:03 15.4 C 12.48 g/m*3 15.4 C 0 km/h
64 24-09-2010 12:45:02 15.1 C 12.13 g/m*3 15.1 C 0 km/h
65 24-09-2010 12:57:03 15 C 12.05 g/m*3 15 C 0 km/h
66 24-09-2010 13:09:02 14.8 C 11.91 g/m*3 14.8 C 0 km/h
67 24-09-2010 13:21:02 14.6 C 11.76 g/m*3 14.6 C 0 km/h
68 24-09-2010 13:33:02 14.5 C 11.69 g/m*3 14.5 C 0 km/h
69 24-09-2010 13:45:02 14.5 C 11.69 g/m*3 14.5 C 0 km/h
70 24-09-2010 13:57:02 14.4 C 11.62 g/m*3 14.4 C 0 km/h
71 24-09-2010 14:09:03 14.1 C 11.41 g/m*3 14.1 C 0 km/h
72 24-09-2010 14:21:02 13.8 C 11.2 g/m*3 13.8 C 0 km/h
73 24-09-2010 14:33:03 13.5 C 10.99 g/m*3 13.5 C 0 km/h
74 24-09-2010 14:45:02 13.2 C 10.79 g/m*3 13.2 C 0 km/h
75 24-09-2010 14:57:02 13.1 C 10.73 g/m*3 13.1 C 0 km/h
Sensor: Nr:Datum:Temp:Abs-Feuchte:Windchill:Wind:
Aussen-T/F 76 24-09-2010 15:09:02 12.9 C 10.71 g/m*3 12.9 C 0 km/h
77 24-09-2010 15:21:03 13.1 C 10.73 g/m*3 13.1 C 0 km/h
78 24-09-2010 15:33:02 13 C 10.77 g/m*3 13 C 0 km/h
79 24-09-2010 15:45:03 13.2 C 10.91 g/m*3 13.2 C 0 km/h
80 24-09-2010 15:57:03 13.2 C 10.91 g/m*3 13.2 C 0 km/h
81 24-09-2010 16:09:02 13.3 C 10.98 g/m*3 13.3 C 0 km/h
82 24-09-2010 16:21:02 13.7 C 11.25 g/m*3 13.7 C 0 km/h
83 24-09-2010 16:33:02 14 C 11.46 g/m*3 14 C 0 km/h
84 24-09-2010 16:45:02 14.1 C 11.53 g/m*3 14.1 C 0 km/h
85 24-09-2010 16:57:02 13.9 C 11.39 g/m*3 13.9 C 0 km/h
86 24-09-2010 17:09:02 13.9 C 11.39 g/m*3 13.9 C 0 km/h
87 24-09-2010 17:21:02 13.9 C 11.39 g/m*3 13.9 C 0 km/h
88 24-09-2010 17:33:02 13.4 C 10.93 g/m*3 13.4 C 0 km/h
89 24-09-2010 17:45:02 13.2 C 10.79 g/m*3 13.2 C 0 km/h
90 24-09-2010 17:57:02 13 C 10.66 g/m*3 13 C 0 km/h
91 24-09-2010 18:09:01 13.2 C 10.79 g/m*3 13.2 C 0 km/h
92 24-09-2010 18:21:01 13.3 C 10.86 g/m*3 13.3 C 0 km/h
93 24-09-2010 18:33:02 13.3 C 10.86 g/m*3 13.3 C 0 km/h
94 24-09-2010 18:45:02 13.3 C 10.86 g/m*3 13.3 C 0 km/h
95 24-09-2010 18:57:02 13.2 C 10.79 g/m*3 13.2 C 0 km/h
96 24-09-2010 19:09:02 13.1 C 10.73 g/m*3 13.1 C 0 km/h
97 24-09-2010 19:21:01 12.9 C 10.71 g/m*3 12.9 C 0 km/h
98 24-09-2010 19:33:02 12.8 C 10.64 g/m*3 12.8 C 0 km/h
99 24-09-2010 19:45:02 12.7 C 10.58 g/m*3 12.7 C 0 km/h
100 24-09-2010 19:57:02 12.7 C 10.58 g/m*3 12.7 C 0 km/h
Sensor: Nr:Datum:Temp:Abs-Feuchte:Windchill:Wind:
Aussen-T/F 101 24-09-2010 20:09:02 12.7 C 10.58 g/m*3 12.7 C 0 km/h
102 24-09-2010 20:21:01 12.7 C 10.58 g/m*3 12.7 C 0 km/h
103 24-09-2010 20:33:02 12.7 C 10.58 g/m*3 12.7 C 0 km/h
104 24-09-2010 20:45:01 12.7 C 10.58 g/m*3 12.7 C 0 km/h
105 24-09-2010 20:57:01 12.7 C 10.58 g/m*3 12.7 C 0 km/h
106 24-09-2010 21:09:02 12.8 C 10.64 g/m*3 12.8 C 0 km/h
107 24-09-2010 21:21:02 12.8 C 10.64 g/m*3 12.8 C 0 km/h
108 24-09-2010 21:33:02 12.9 C 10.71 g/m*3 12.9 C 0 km/h
109 24-09-2010 21:45:02 12.8 C 10.64 g/m*3 12.8 C 0 km/h
110 24-09-2010 21:57:02 12.8 C 10.64 g/m*3 12.8 C 0 km/h
111 24-09-2010 22:09:01 12.8 C 10.64 g/m*3 12.8 C 0 km/h
112 24-09-2010 22:21:02 12.8 C 10.64 g/m*3 12.8 C 0 km/h
113 24-09-2010 22:33:02 12.7 C 10.58 g/m*3 12.7 C 0 km/h
114 24-09-2010 22:46:04 12.6 C 10.51 g/m*3 12.6 C 0 km/h
115 24-09-2010 22:58:04 12.6 C 10.51 g/m*3 12.6 C 0 km/h
116 24-09-2010 23:10:04 12.5 C 10.44 g/m*3 12.5 C 0 km/h
117 24-09-2010 23:22:04 12.4 C 10.38 g/m*3 12.4 C 0 km/h
118 24-09-2010 23:34:04 12.4 C 10.38 g/m*3 12.4 C 0 km/h
119 24-09-2010 23:46:04 12.3 C 10.32 g/m*3 12.3 C 0 km/h
120 24-09-2010 23:58:04 12.4 C 10.38 g/m*3 12.4 C 0 km/h

Legende:
   Min
   Max


Maximal/Minimal-Werte vom 24.09.2010 - 24.09.2010

Sensor Min Max Avg
Temp
(Aussen-T/F)
12.3 °C
24-09-2010  23:46:04
16 °C
24-09-2010  00:09:02
14.17 °C
Abs-Feuchte
(Aussen-T/F)
10.32 g/m*3
24-09-2010  23:46:04
12.48 g/m*3
24-09-2010  12:33:03
11.39 g/m*3
Windchill
(Aussen-T/F)
12.3 C
24-09-2010  23:46:04
16 C
24-09-2010  00:09:02
14.05 C

Die Daten stammen von einer Davis Vantage Pro 2 Wetter-Station und werden unter Linux mit der Software wview2wettercgi und aufbereitet. Alle Angaben erfolgen ohne Gewähr für ihre Vollständigkeit oder Richtigkeit.
Kontakt: Rainer Krienke krienke@uni-koblenz.de . Meine Webseiten an der Uni Koblenz oder privat.
Version: $Revision: 0.78 $